Accueil
METAR-TAF:

METAR-TAF

Aéroports :

Aéroport international Netaji-Subhash-Chandra-Bose

Calcutta, Inde

latitude: 22-39N, longitude: 088-27E, altitude: 4 m

Observation

Le bulletin a été fait il y a 39 minutes, à 04:30 UTC
Vent 4 kt de sud-ouest
Température 27°C
Humidité 58%
Pression 1018 hPa
Visibilité: 2800 m
Nuages épars à une hauteur de 10000 ft
brume sèche

METAR: VECC 080430Z 23004KT 2800 HZ SCT100 27/18 Q1018 NOSIG

Heure: 10:39 (05:09 UTC)

Prévision

Le bulletin a été fait il y a 3 heures et 9 minutes, à 02:00 UTC
Prévision valable du 08 à 03 UTC au 08 à 12 UTC
Vent kt de nord
Visibilité: 3000 m
Quelques nuages à une hauteur de 2000 ft
Nuages épars à une hauteur de 10000 ft
brume sèche
Evoluant progressivement
du 08 à 05 UTC au 08 à 07 UTC
Vent 5 kt de sud-ouest
Visibilité: 4000 m
brume sèche

TAF: VECC 080200Z 0803/0812 00000KT 3000 HZ FEW020 SCT100 BECMG 0805/0807 22005KT 4000 HZ

Observations et prévisions météorologiques de plus de 4000 aéroports (messages METAR et TAF).

Les stations disponibles sont représentées par des disques jaunes et rouges sur la carte.

Passer la souris dessus pour voir le nom de la station.

Cliquer dessus pour voir les observations et prévisions météorologiques.

Pour changer de carte: cliquez sur les boutons verts avec une croix noire pour zoomer, sur le bouton vert avec un tiret pour effectuer un zoom arrière, ou sur les flèches vertes pour les cartes adjacentes.


METAR-TAF: